createdAt,value
2017-01-24T00:00:46.536Z,1020.28
2017-01-24T00:01:46.548Z,1020.27
2017-01-24T00:02:46.564Z,1020.28
2017-01-24T00:03:46.578Z,1020.31
2017-01-24T00:04:46.593Z,1020.27
2017-01-24T00:05:46.604Z,1020.29
2017-01-24T00:06:46.621Z,1020.24
2017-01-24T00:07:46.635Z,1020.26
2017-01-24T00:08:46.647Z,1020.28
2017-01-24T00:09:46.662Z,1020.28
2017-01-24T00:10:46.697Z,1020.32
2017-01-24T00:11:46.692Z,1020.34
2017-01-24T00:12:46.706Z,1020.32
2017-01-24T00:14:46.734Z,1020.32
2017-01-24T00:15:46.748Z,1020.31
2017-01-24T00:16:46.761Z,1020.3
2017-01-24T00:17:46.775Z,1020.36
2017-01-24T00:18:46.791Z,1020.31
2017-01-24T00:19:46.805Z,1020.34
2017-01-24T00:20:46.819Z,1020.32
2017-01-24T00:21:46.833Z,1020.33
2017-01-24T00:22:46.848Z,1020.32
2017-01-24T00:23:46.860Z,1020.33
2017-01-24T00:24:46.876Z,1020.35
2017-01-24T00:25:46.890Z,1020.33
2017-01-24T00:26:46.904Z,1020.33
2017-01-24T00:27:46.921Z,1020.35
2017-01-24T00:29:46.947Z,1020.33
2017-01-24T00:30:46.960Z,1020.35
2017-01-24T00:31:46.979Z,1020.32
2017-01-24T00:32:46.990Z,1020.31
2017-01-24T00:33:47.004Z,1020.33
2017-01-24T00:34:47.019Z,1020.31
2017-01-24T00:35:47.032Z,1020.34
2017-01-24T00:36:47.049Z,1020.34
2017-01-24T00:37:47.062Z,1020.34
2017-01-24T00:38:47.074Z,1020.42
2017-01-24T00:39:47.090Z,1020.45
2017-01-24T00:40:47.104Z,1020.49
2017-01-24T00:41:47.118Z,1020.44
2017-01-24T00:42:47.133Z,1020.42
2017-01-24T00:43:47.147Z,1020.45
2017-01-24T00:44:47.161Z,1020.41
2017-01-24T00:45:47.174Z,1020.42
2017-01-24T00:46:47.190Z,1020.41
2017-01-24T00:47:47.205Z,1020.45
2017-01-24T00:48:47.217Z,1020.47
2017-01-24T00:49:47.233Z,1020.48
2017-01-24T00:50:47.248Z,1020.48
2017-01-24T00:51:47.261Z,1020.49
2017-01-24T00:52:47.274Z,1020.47
2017-01-24T00:53:47.290Z,1020.42
2017-01-24T00:54:47.307Z,1020.44
2017-01-24T00:55:47.317Z,1020.49
2017-01-24T00:56:47.331Z,1020.47
2017-01-24T00:57:47.347Z,1020.51
2017-01-24T00:58:47.361Z,1020.55
2017-01-24T00:59:47.375Z,1020.52
2017-01-24T01:01:47.404Z,1020.53
2017-01-24T01:02:47.417Z,1020.57
2017-01-24T01:03:47.433Z,1020.54
2017-01-24T01:04:47.446Z,1020.53
2017-01-24T01:05:47.460Z,1020.52
2017-01-24T01:06:47.480Z,1020.57
2017-01-24T01:07:47.489Z,1020.51
2017-01-24T01:08:47.504Z,1020.56
2017-01-24T01:09:47.518Z,1020.54
2017-01-24T01:10:47.533Z,1020.59
2017-01-24T01:11:47.548Z,1020.59
2017-01-24T01:12:47.562Z,1020.58
2017-01-24T01:13:47.604Z,1020.65
2017-01-24T01:14:47.589Z,1020.61
2017-01-24T01:15:47.605Z,1020.68
2017-01-24T01:17:47.634Z,1020.69
2017-01-24T01:18:47.647Z,1020.68
2017-01-24T01:19:47.661Z,1020.7
2017-01-24T01:20:47.676Z,1020.66
2017-01-24T01:21:47.691Z,1020.73
2017-01-24T01:22:47.705Z,1020.76
2017-01-24T01:23:47.719Z,1020.75
2017-01-24T01:24:47.734Z,1020.76
2017-01-24T01:25:47.748Z,1020.75
2017-01-24T01:26:47.762Z,1020.73
2017-01-24T01:27:47.776Z,1020.76
2017-01-24T01:28:47.792Z,1020.79
2017-01-24T01:29:47.805Z,1020.8
2017-01-24T01:30:47.820Z,1020.78
2017-01-24T01:31:47.835Z,1020.76
2017-01-24T01:33:47.864Z,1020.81
2017-01-24T01:34:47.878Z,1020.78
2017-01-24T01:35:47.893Z,1020.76
2017-01-24T01:36:47.906Z,1020.76
2017-01-24T01:37:47.923Z,1020.77
2017-01-24T01:38:47.935Z,1020.75
2017-01-24T01:39:47.953Z,1020.73
2017-01-24T01:40:47.966Z,1020.68
2017-01-24T01:41:47.979Z,1020.71
2017-01-24T01:42:47.995Z,1020.67
2017-01-24T01:43:48.007Z,1020.68
2017-01-24T01:44:48.022Z,1020.66
2017-01-24T01:45:48.036Z,1020.71
2017-01-24T01:46:48.050Z,1020.7
2017-01-24T01:47:48.064Z,1020.67
2017-01-24T01:49:48.094Z,1020.63
2017-01-24T01:50:48.108Z,1020.68
2017-01-24T01:51:48.122Z,1020.66
2017-01-24T01:52:48.140Z,1020.66
2017-01-24T01:53:48.154Z,1020.59
2017-01-24T01:54:48.166Z,1020.58
2017-01-24T01:55:48.180Z,1020.61
2017-01-24T01:56:48.196Z,1020.59
2017-01-24T01:57:48.210Z,1020.59
2017-01-24T01:58:48.223Z,1020.62
2017-01-24T01:59:48.241Z,1020.62
2017-01-24T02:00:48.254Z,1020.65
2017-01-24T02:01:48.269Z,1020.61
2017-01-24T02:02:48.281Z,1020.6
2017-01-24T02:04:48.311Z,1020.57
2017-01-24T02:05:48.324Z,1020.58
2017-01-24T02:06:48.339Z,1020.61
2017-01-24T02:07:48.353Z,1020.57
2017-01-24T02:08:48.368Z,1020.62
2017-01-24T02:09:48.381Z,1020.6
2017-01-24T02:10:48.395Z,1020.61
2017-01-24T02:11:48.409Z,1020.58
2017-01-24T02:12:48.423Z,1020.51
2017-01-24T02:13:48.438Z,1020.47
2017-01-24T02:14:48.453Z,1020.53
2017-01-24T02:15:48.467Z,1020.59
2017-01-24T02:16:48.480Z,1020.62
2017-01-24T02:17:48.496Z,1020.59
2017-01-24T02:18:48.510Z,1020.53
2017-01-24T02:19:48.525Z,1020.5
2017-01-24T02:20:48.538Z,1020.52
2017-01-24T02:21:48.556Z,1020.57
2017-01-24T02:22:48.567Z,1020.56
2017-01-24T02:23:48.581Z,1020.54
2017-01-24T02:24:48.596Z,1020.52
2017-01-24T02:25:48.611Z,1020.49
2017-01-24T02:26:48.626Z,1020.56
2017-01-24T02:27:48.639Z,1020.56
2017-01-24T02:28:48.672Z,1020.53
2017-01-24T02:29:48.667Z,1020.57
2017-01-24T02:30:48.682Z,1020.53
2017-01-24T02:31:48.697Z,1020.54
2017-01-24T02:32:48.710Z,1020.54
2017-01-24T02:33:48.724Z,1020.59
2017-01-24T02:34:48.740Z,1020.53
2017-01-24T02:36:48.768Z,1020.54
2017-01-24T02:37:48.783Z,1020.52
2017-01-24T02:38:48.798Z,1020.53
2017-01-24T02:39:48.813Z,1020.55
2017-01-24T02:40:48.827Z,1020.56
2017-01-24T02:41:48.841Z,1020.56
2017-01-24T02:42:48.855Z,1020.53
2017-01-24T02:43:48.872Z,1020.51
2017-01-24T02:44:48.884Z,1020.49
2017-01-24T02:45:48.897Z,1020.47
2017-01-24T02:46:48.913Z,1020.49
2017-01-24T02:47:48.927Z,1020.48
2017-01-24T02:48:48.942Z,1020.51
2017-01-24T02:49:48.956Z,1020.5
2017-01-24T02:50:48.971Z,1020.48
2017-01-24T02:52:48.998Z,1020.42
2017-01-24T02:53:49.012Z,1020.37
2017-01-24T02:54:49.030Z,1020.42
2017-01-24T02:55:49.042Z,1020.44
2017-01-24T02:56:49.056Z,1020.48
2017-01-24T02:57:49.072Z,1020.44
2017-01-24T02:58:49.087Z,1020.42
2017-01-24T02:59:49.103Z,1020.42
2017-01-24T03:00:49.114Z,1020.44
2017-01-24T03:01:49.128Z,1020.51
2017-01-24T03:02:49.143Z,1020.49
2017-01-24T03:03:49.186Z,1020.47
2017-01-24T03:04:49.173Z,1020.44
2017-01-24T03:05:49.187Z,1020.46
2017-01-24T03:06:49.203Z,1020.45
2017-01-24T03:08:49.231Z,1020.46
2017-01-24T03:09:49.244Z,1020.44
2017-01-24T03:10:49.287Z,1020.46
2017-01-24T03:11:49.272Z,1020.39
2017-01-24T03:12:49.287Z,1020.32
2017-01-24T03:13:49.302Z,1020.4
2017-01-24T03:14:49.316Z,1020.38
2017-01-24T03:15:49.331Z,1020.37
2017-01-24T03:16:49.345Z,1020.41
2017-01-24T03:17:49.359Z,1020.39
2017-01-24T03:18:49.374Z,1020.42
2017-01-24T03:19:49.388Z,1020.42
2017-01-24T03:20:49.402Z,1020.5
2017-01-24T03:21:49.417Z,1020.52
2017-01-24T03:22:49.431Z,1020.49
2017-01-24T03:24:49.460Z,1020.5
2017-01-24T03:25:49.475Z,1020.51
2017-01-24T03:26:49.488Z,1020.55
2017-01-24T03:27:49.503Z,1020.56
2017-01-24T03:28:49.518Z,1020.66
2017-01-24T03:29:49.531Z,1020.62
2017-01-24T03:30:49.546Z,1020.57
2017-01-24T03:31:49.560Z,1020.51
2017-01-24T03:32:49.574Z,1020.53
2017-01-24T03:33:49.589Z,1020.57
2017-01-24T03:34:49.603Z,1020.53
2017-01-24T03:35:49.618Z,1020.6
2017-01-24T03:36:49.633Z,1020.57
2017-01-24T03:37:49.648Z,1020.6
2017-01-24T03:39:49.676Z,1020.49
2017-01-24T03:40:49.691Z,1020.45
2017-01-24T03:41:49.705Z,1020.45
2017-01-24T03:42:49.719Z,1020.51
2017-01-24T03:43:49.735Z,1020.53
2017-01-24T03:44:49.747Z,1020.52
2017-01-24T03:45:49.764Z,1020.52
2017-01-24T03:46:49.777Z,1020.54
2017-01-24T03:47:49.790Z,1020.5
2017-01-24T03:48:49.806Z,1020.48
2017-01-24T03:49:49.827Z,1020.48
2017-01-24T03:50:49.834Z,1020.5
2017-01-24T03:51:49.848Z,1020.53
2017-01-24T03:52:49.864Z,1020.5
2017-01-24T03:53:49.877Z,1020.55
2017-01-24T03:54:49.893Z,1020.58
2017-01-24T03:55:49.906Z,1020.59
2017-01-24T03:56:49.921Z,1020.58
2017-01-24T03:57:49.935Z,1020.59
2017-01-24T03:58:49.949Z,1020.55
2017-01-24T03:59:49.964Z,1020.59
2017-01-24T04:00:49.979Z,1020.61
2017-01-24T04:01:49.994Z,1020.58
2017-01-24T04:02:50.007Z,1020.58
2017-01-24T04:03:50.022Z,1020.55
2017-01-24T04:04:50.037Z,1020.57
2017-01-24T04:05:50.050Z,1020.59
2017-01-24T04:06:50.064Z,1020.56
2017-01-24T04:07:50.080Z,1020.54
2017-01-24T04:08:50.095Z,1020.54
2017-01-24T04:09:50.108Z,1020.54
2017-01-24T04:11:50.137Z,1020.55
2017-01-24T04:12:50.154Z,1020.53
2017-01-24T04:13:50.166Z,1020.49
2017-01-24T04:14:50.181Z,1020.5
2017-01-24T04:15:50.195Z,1020.51
2017-01-24T04:16:50.211Z,1020.54
2017-01-24T04:17:50.223Z,1020.51
2017-01-24T04:18:50.237Z,1020.53
2017-01-24T04:19:50.253Z,1020.54
2017-01-24T04:20:50.270Z,1020.58
2017-01-24T04:21:50.281Z,1020.59
2017-01-24T04:22:50.295Z,1020.62
2017-01-24T04:23:50.311Z,1020.58
2017-01-24T04:24:50.327Z,1020.57
2017-01-24T04:25:50.338Z,1020.55
2017-01-24T04:27:50.367Z,1020.55
2017-01-24T04:28:50.381Z,1020.55
2017-01-24T04:29:50.398Z,1020.51
2017-01-24T04:30:50.416Z,1020.54
2017-01-24T04:31:50.425Z,1020.51
2017-01-24T04:32:50.442Z,1020.51
2017-01-24T04:33:50.455Z,1020.48
2017-01-24T04:34:50.468Z,1020.54
2017-01-24T04:35:50.483Z,1020.58
2017-01-24T04:36:50.498Z,1020.55
2017-01-24T04:37:50.513Z,1020.58
2017-01-24T04:38:50.526Z,1020.6
2017-01-24T04:39:50.539Z,1020.58
2017-01-24T04:40:50.555Z,1020.54
2017-01-24T04:41:50.569Z,1020.59
2017-01-24T04:43:50.597Z,1020.55
2017-01-24T04:44:50.612Z,1020.51
2017-01-24T04:45:50.627Z,1020.61
2017-01-24T04:46:50.641Z,1020.61
2017-01-24T04:47:50.656Z,1020.61
2017-01-24T04:48:50.670Z,1020.56
2017-01-24T04:49:50.684Z,1020.59
2017-01-24T04:50:50.698Z,1020.58
2017-01-24T04:51:50.713Z,1020.63
2017-01-24T04:52:50.727Z,1020.59
2017-01-24T04:53:50.742Z,1020.58
2017-01-24T04:54:50.757Z,1020.58
2017-01-24T04:55:50.772Z,1020.58
2017-01-24T04:56:50.789Z,1020.58
2017-01-24T04:57:50.799Z,1020.61
2017-01-24T04:59:50.829Z,1020.6
2017-01-24T05:00:50.844Z,1020.61
2017-01-24T05:01:50.863Z,1020.6
2017-01-24T05:02:50.872Z,1020.66
2017-01-24T05:03:50.888Z,1020.62
2017-01-24T05:04:50.901Z,1020.6
2017-01-24T05:05:50.915Z,1020.59
2017-01-24T05:06:50.930Z,1020.63
2017-01-24T05:07:50.945Z,1020.62
2017-01-24T05:08:50.958Z,1020.63
2017-01-24T05:09:50.973Z,1020.64
2017-01-24T05:10:50.988Z,1020.68
2017-01-24T05:11:51.003Z,1020.75
2017-01-24T05:12:51.018Z,1020.72
2017-01-24T05:14:51.047Z,1020.78
2017-01-24T05:15:51.061Z,1020.77
2017-01-24T05:16:51.076Z,1020.79
2017-01-24T05:17:51.091Z,1020.81
2017-01-24T05:18:51.105Z,1020.74
2017-01-24T05:19:51.119Z,1020.76
2017-01-24T05:20:51.134Z,1020.77
2017-01-24T05:21:51.148Z,1020.77
2017-01-24T05:22:51.167Z,1020.78
2017-01-24T05:23:51.178Z,1020.81
2017-01-24T05:24:51.193Z,1020.78
2017-01-24T05:25:51.207Z,1020.78
2017-01-24T05:26:51.220Z,1020.77
2017-01-24T05:27:51.236Z,1020.82
2017-01-24T05:28:51.250Z,1020.83
2017-01-24T05:29:51.265Z,1020.85
2017-01-24T05:30:51.278Z,1020.82
2017-01-24T05:31:51.294Z,1020.81
2017-01-24T05:32:51.309Z,1020.84
2017-01-24T05:33:51.322Z,1020.84
2017-01-24T05:34:51.337Z,1020.87
2017-01-24T05:35:51.352Z,1020.83
2017-01-24T05:36:51.367Z,1020.86
2017-01-24T05:37:51.380Z,1020.87
2017-01-24T05:38:51.395Z,1020.84
2017-01-24T05:39:51.410Z,1020.84
2017-01-24T05:40:51.425Z,1020.86
2017-01-24T05:41:51.439Z,1020.76
2017-01-24T05:42:51.453Z,1020.88
2017-01-24T05:43:51.468Z,1020.83
2017-01-24T05:44:51.483Z,1020.86
2017-01-24T05:46:51.512Z,1020.88
2017-01-24T05:47:51.527Z,1020.89
2017-01-24T05:48:51.541Z,1020.91
2017-01-24T05:49:51.555Z,1020.92
2017-01-24T05:50:51.570Z,1020.93
2017-01-24T05:51:51.584Z,1020.9
2017-01-24T05:52:51.598Z,1020.95
2017-01-24T05:53:51.614Z,1020.97
2017-01-24T05:54:51.627Z,1020.95
2017-01-24T05:55:51.645Z,1021.01
2017-01-24T05:56:51.657Z,1021
2017-01-24T05:57:51.672Z,1021.03
2017-01-24T05:58:51.687Z,1021.07
2017-01-24T05:59:51.701Z,1021.07
2017-01-24T06:00:51.715Z,1021.04
2017-01-24T06:02:51.744Z,1021.02
2017-01-24T06:03:51.759Z,1021.05
2017-01-24T06:04:51.774Z,1021.03
2017-01-24T06:05:51.788Z,1021.05
2017-01-24T06:06:51.803Z,1021.03
2017-01-24T06:07:51.817Z,1021.03
2017-01-24T06:08:51.834Z,1021.04
2017-01-24T06:09:51.847Z,1021.03
2017-01-24T06:10:51.861Z,1021.01
2017-01-24T06:11:51.876Z,1021.01
2017-01-24T06:12:51.891Z,1020.97
2017-01-24T06:13:51.905Z,1021.02
2017-01-24T06:14:51.920Z,1021.02
2017-01-24T06:15:51.939Z,1021.04
2017-01-24T06:16:51.949Z,1021.04
2017-01-24T06:18:51.977Z,1021.03
2017-01-24T06:19:51.993Z,1021.06
2017-01-24T06:20:52.007Z,1021.01
2017-01-24T06:21:52.021Z,1021.06
2017-01-24T06:22:52.036Z,1021.06
2017-01-24T06:23:52.051Z,1021.14
2017-01-24T06:24:52.065Z,1021.17
2017-01-24T06:25:52.080Z,1021.16
2017-01-24T06:26:52.094Z,1021.16
2017-01-24T06:27:52.109Z,1021.17
2017-01-24T06:28:52.122Z,1021.17
2017-01-24T06:29:52.138Z,1021.16
2017-01-24T06:30:52.153Z,1021.15
2017-01-24T06:31:52.168Z,1021.15
2017-01-24T06:32:52.181Z,1021.19
2017-01-24T06:34:52.211Z,1021.28
2017-01-24T06:35:52.225Z,1021.28
2017-01-24T06:36:52.240Z,1021.3
2017-01-24T06:37:52.254Z,1021.24
2017-01-24T06:38:52.269Z,1021.31
2017-01-24T06:39:52.282Z,1021.26
2017-01-24T06:40:52.297Z,1021.24
2017-01-24T06:41:52.312Z,1021.26
2017-01-24T06:42:52.328Z,1021.33
2017-01-24T06:43:52.341Z,1021.3
2017-01-24T06:44:52.356Z,1021.3
2017-01-24T06:45:52.371Z,1021.33
2017-01-24T06:46:52.386Z,1021.39
2017-01-24T06:47:52.400Z,1021.38
2017-01-24T06:49:52.430Z,1021.36
2017-01-24T06:50:52.443Z,1021.39
2017-01-24T06:51:52.459Z,1021.39
2017-01-24T06:52:52.473Z,1021.42
2017-01-24T06:53:52.488Z,1021.43
2017-01-24T06:54:52.502Z,1021.47
2017-01-24T06:55:52.516Z,1021.44
2017-01-24T06:56:52.531Z,1021.44
2017-01-24T06:57:52.545Z,1021.5
2017-01-24T06:58:52.560Z,1021.52
2017-01-24T06:59:52.575Z,1021.51
2017-01-24T07:00:52.590Z,1021.5
2017-01-24T07:01:52.603Z,1021.53
2017-01-24T07:02:52.618Z,1021.53
2017-01-24T07:03:52.633Z,1021.55
2017-01-24T07:04:52.648Z,1021.56
2017-01-24T07:05:52.661Z,1021.55
2017-01-24T07:06:52.676Z,1021.59
2017-01-24T07:07:52.691Z,1021.62
2017-01-24T07:08:52.704Z,1021.72
2017-01-24T07:09:52.719Z,1021.73
2017-01-24T07:10:52.734Z,1021.74
2017-01-24T07:11:52.749Z,1021.74
2017-01-24T07:12:52.763Z,1021.8
2017-01-24T07:13:52.777Z,1021.82
2017-01-24T07:14:52.792Z,1021.82
2017-01-24T07:15:52.807Z,1021.8
2017-01-24T07:16:52.821Z,1021.84
2017-01-24T07:17:52.835Z,1021.84
2017-01-24T07:18:52.850Z,1021.81
2017-01-24T07:19:52.864Z,1021.85
2017-01-24T07:21:52.894Z,1021.84
2017-01-24T07:22:52.908Z,1021.85
2017-01-24T07:23:52.922Z,1021.86
2017-01-24T07:24:52.937Z,1021.88
2017-01-24T07:25:52.952Z,1021.89
2017-01-24T07:26:52.968Z,1021.92
2017-01-24T07:27:52.979Z,1021.95
2017-01-24T07:28:52.994Z,1021.95
2017-01-24T07:29:53.009Z,1022
2017-01-24T07:30:53.023Z,1021.99
2017-01-24T07:31:53.038Z,1022.03
2017-01-24T07:32:53.053Z,1022.03
2017-01-24T07:33:53.068Z,1022.02
2017-01-24T07:34:53.085Z,1022.02
2017-01-24T07:35:53.096Z,1022.08
2017-01-24T07:37:53.126Z,1022.08
2017-01-24T07:38:53.140Z,1022.15
2017-01-24T07:39:53.155Z,1022.15
2017-01-24T07:40:53.169Z,1022.18
2017-01-24T07:41:53.183Z,1022.12
2017-01-24T07:42:53.198Z,1022.18
2017-01-24T07:43:53.237Z,1022.13
2017-01-24T07:44:53.227Z,1022.16
2017-01-24T07:45:53.242Z,1022.14
2017-01-24T07:46:53.255Z,1022.17
2017-01-24T07:47:53.271Z,1022.17
2017-01-24T07:48:53.288Z,1022.19
2017-01-24T07:49:53.301Z,1022.16
2017-01-24T07:50:53.315Z,1022.21
2017-01-24T07:51:53.329Z,1022.19
2017-01-24T07:53:53.358Z,1022.25
2017-01-24T07:54:53.372Z,1022.28
2017-01-24T07:55:53.388Z,1022.28
2017-01-24T07:56:53.402Z,1022.29
2017-01-24T07:57:53.442Z,1022.27
2017-01-24T07:58:53.431Z,1022.28
2017-01-24T07:59:53.446Z,1022.33
2017-01-24T08:00:53.460Z,1022.3
2017-01-24T08:01:53.475Z,1022.33
2017-01-24T08:02:53.490Z,1022.33
2017-01-24T08:03:53.503Z,1022.36
2017-01-24T08:04:53.518Z,1022.37
2017-01-24T08:05:53.534Z,1022.39
2017-01-24T08:06:53.549Z,1022.4
2017-01-24T08:07:53.562Z,1022.4
2017-01-24T08:09:53.593Z,1022.39
2017-01-24T08:10:53.608Z,1022.42
2017-01-24T08:11:53.621Z,1022.44
2017-01-24T08:12:53.636Z,1022.46
2017-01-24T08:13:53.651Z,1022.43
2017-01-24T08:14:53.665Z,1022.46
2017-01-24T08:15:53.683Z,1022.49
2017-01-24T08:16:53.697Z,1022.49
2017-01-24T08:17:53.710Z,1022.46
2017-01-24T08:18:53.730Z,1022.46
2017-01-24T08:19:53.739Z,1022.46
2017-01-24T08:20:53.754Z,1022.47
2017-01-24T08:21:53.771Z,1022.43
2017-01-24T08:22:53.785Z,1022.44
2017-01-24T08:24:53.814Z,1022.44
2017-01-24T08:25:53.829Z,1022.49
2017-01-24T08:26:53.843Z,1022.45
2017-01-24T08:27:53.861Z,1022.51
2017-01-24T08:28:53.874Z,1022.5
2017-01-24T08:29:53.889Z,1022.53
2017-01-24T08:30:53.902Z,1022.56
2017-01-24T08:31:53.918Z,1022.58
2017-01-24T08:32:53.932Z,1022.55
2017-01-24T08:33:53.947Z,1022.58
2017-01-24T08:34:53.964Z,1022.57
2017-01-24T08:35:53.977Z,1022.61
2017-01-24T08:36:53.991Z,1022.61
2017-01-24T08:37:54.007Z,1022.63
2017-01-24T08:38:54.021Z,1022.61
2017-01-24T08:39:54.037Z,1022.63
2017-01-24T08:40:54.051Z,1022.63
2017-01-24T08:41:54.066Z,1022.63
2017-01-24T08:42:54.081Z,1022.63
2017-01-24T08:43:54.095Z,1022.59
2017-01-24T08:44:54.111Z,1022.64
2017-01-24T08:45:54.126Z,1022.62
2017-01-24T08:46:54.140Z,1022.65
2017-01-24T08:47:54.157Z,1022.69
2017-01-24T08:48:54.169Z,1022.65
2017-01-24T08:49:54.185Z,1022.63
2017-01-24T08:50:54.202Z,1022.67
2017-01-24T08:51:54.214Z,1022.62
2017-01-24T08:52:54.229Z,1022.63
2017-01-24T08:53:54.245Z,1022.58
2017-01-24T08:54:54.258Z,1022.63
2017-01-24T08:56:54.296Z,1022.63
2017-01-24T08:57:54.304Z,1022.69
2017-01-24T08:58:54.318Z,1022.72
2017-01-24T08:59:54.333Z,1022.77
2017-01-24T09:00:54.350Z,1022.77
2017-01-24T09:01:54.364Z,1022.75
2017-01-24T09:02:54.378Z,1022.79
2017-01-24T09:03:54.393Z,1022.79
2017-01-24T09:04:54.408Z,1022.82
2017-01-24T09:05:54.422Z,1022.85
2017-01-24T09:06:54.438Z,1022.82
2017-01-24T09:07:54.452Z,1022.84
2017-01-24T09:08:54.469Z,1022.82
2017-01-24T09:09:54.482Z,1022.84
2017-01-24T09:10:54.496Z,1022.82
2017-01-24T09:12:54.530Z,1022.84
2017-01-24T09:13:54.541Z,1022.82
2017-01-24T09:14:54.557Z,1022.88
2017-01-24T09:15:54.572Z,1022.86
2017-01-24T09:16:54.590Z,1022.9
2017-01-24T09:17:54.612Z,1022.83
2017-01-24T09:18:54.616Z,1022.83
2017-01-24T09:19:54.632Z,1022.87
2017-01-24T09:20:54.646Z,1022.86
2017-01-24T09:21:54.664Z,1022.88
2017-01-24T09:22:54.677Z,1022.88
2017-01-24T09:23:54.699Z,1022.91
2017-01-24T09:24:54.706Z,1022.85
2017-01-24T09:25:54.721Z,1022.91
2017-01-24T09:26:54.737Z,1022.89
2017-01-24T09:28:54.766Z,1022.9
2017-01-24T09:29:54.781Z,1022.86
2017-01-24T09:30:54.797Z,1022.86
2017-01-24T09:31:54.811Z,1022.83
2017-01-24T09:32:54.826Z,1022.87
2017-01-24T09:33:54.842Z,1022.86
2017-01-24T09:34:54.857Z,1022.83
2017-01-24T09:35:54.873Z,1022.85
2017-01-24T09:36:54.887Z,1022.89
2017-01-24T09:37:54.903Z,1022.82
2017-01-24T09:38:54.916Z,1022.83
2017-01-24T09:39:54.982Z,1022.82
2017-01-24T09:40:54.949Z,1022.84
2017-01-24T09:41:54.963Z,1022.8
2017-01-24T09:42:54.978Z,1022.79
2017-01-24T09:44:55.007Z,1022.77
2017-01-24T09:45:55.023Z,1022.8
2017-01-24T09:46:55.039Z,1022.85
2017-01-24T09:47:55.053Z,1022.85
2017-01-24T09:48:55.069Z,1022.87
2017-01-24T09:49:55.083Z,1022.91
2017-01-24T09:50:55.099Z,1022.89
2017-01-24T09:51:55.115Z,1022.88
2017-01-24T09:52:55.130Z,1022.9
2017-01-24T09:53:55.147Z,1022.94
2017-01-24T09:54:55.159Z,1022.97
2017-01-24T09:55:55.175Z,1022.94
2017-01-24T09:56:55.191Z,1022.97
2017-01-24T09:57:55.207Z,1022.98
2017-01-24T09:59:55.238Z,1022.97
2017-01-24T10:00:55.252Z,1022.99
2017-01-24T10:01:55.268Z,1022.97
2017-01-24T10:02:55.282Z,1022.93
2017-01-24T10:03:55.299Z,1022.96
2017-01-24T10:04:55.313Z,1022.98
2017-01-24T10:05:55.329Z,1023.01
2017-01-24T10:06:55.344Z,1023.02
2017-01-24T10:07:55.359Z,1023.05
2017-01-24T10:08:55.375Z,1023.02
2017-01-24T10:09:55.391Z,1023.03
2017-01-24T10:10:55.410Z,1022.99
2017-01-24T10:11:55.421Z,1022.93
2017-01-24T10:12:55.437Z,1022.93
2017-01-24T10:13:55.452Z,1022.93
2017-01-24T10:14:55.467Z,1022.94
2017-01-24T10:15:55.482Z,1022.92
2017-01-24T10:16:55.500Z,1022.97
2017-01-24T10:17:55.513Z,1022.98
2017-01-24T10:18:55.531Z,1022.98
2017-01-24T10:19:55.544Z,1023
2017-01-24T10:20:55.560Z,1023.01
2017-01-24T10:21:55.575Z,1023.01
2017-01-24T10:22:55.590Z,1022.99
2017-01-24T10:23:55.605Z,1022.98
2017-01-24T10:24:55.621Z,1022.97
2017-01-24T10:25:55.637Z,1022.95
2017-01-24T10:26:55.653Z,1023
2017-01-24T10:27:55.667Z,1022.98
2017-01-24T10:28:55.682Z,1023.08
2017-01-24T10:29:55.698Z,1023.05
2017-01-24T10:31:55.729Z,1023.06
2017-01-24T10:32:55.744Z,1023.09
2017-01-24T10:33:55.759Z,1023.11
2017-01-24T10:34:55.775Z,1023.11
2017-01-24T10:35:55.791Z,1023.1
2017-01-24T10:36:55.806Z,1023.1
2017-01-24T10:37:55.827Z,1023.12
2017-01-24T10:38:55.836Z,1023.08
2017-01-24T10:39:55.852Z,1023.11
2017-01-24T10:40:55.867Z,1023.1
2017-01-24T10:41:55.882Z,1023.16
2017-01-24T10:42:55.898Z,1023.12
2017-01-24T10:43:55.917Z,1023.14
2017-01-24T10:44:55.928Z,1023.11
2017-01-24T10:45:55.944Z,1023.13
2017-01-24T10:47:55.976Z,1023.16
2017-01-24T10:48:55.990Z,1023.17
2017-01-24T10:49:56.005Z,1023.18
2017-01-24T10:50:56.022Z,1023.21
2017-01-24T10:51:56.036Z,1023.19
2017-01-24T10:52:56.052Z,1023.24
2017-01-24T10:53:56.067Z,1023.25
2017-01-24T10:54:56.082Z,1023.24
2017-01-24T10:55:56.097Z,1023.21
2017-01-24T10:56:56.113Z,1023.2
2017-01-24T10:57:56.128Z,1023.18
2017-01-24T10:58:56.144Z,1023.15
2017-01-24T10:59:56.158Z,1023.12
2017-01-24T11:00:56.176Z,1023.2
2017-01-24T11:01:56.190Z,1023.18
2017-01-24T11:03:56.221Z,1023.21
2017-01-24T11:04:56.236Z,1023.21
2017-01-24T11:05:56.253Z,1023.25
2017-01-24T11:06:56.267Z,1023.2
2017-01-24T11:07:56.283Z,1023.19
2017-01-24T11:08:56.299Z,1023.25
2017-01-24T11:09:56.414Z,1023.2
2017-01-24T11:10:56.328Z,1023.22
2017-01-24T11:11:56.344Z,1023.19
2017-01-24T11:12:56.361Z,1023.13
2017-01-24T11:13:56.376Z,1023.22
2017-01-24T11:14:56.391Z,1023.17
2017-01-24T11:15:56.407Z,1023.16
2017-01-24T11:16:56.422Z,1023.18
2017-01-24T11:17:56.436Z,1023.18
2017-01-24T11:19:56.468Z,1023.2
2017-01-24T11:20:56.484Z,1023.17
2017-01-24T11:21:56.498Z,1023.21
2017-01-24T11:22:56.514Z,1023.2
2017-01-24T11:23:56.530Z,1023.17
2017-01-24T11:24:56.545Z,1023.19
2017-01-24T11:25:56.560Z,1023.19
2017-01-24T11:26:56.576Z,1023.2
2017-01-24T11:27:56.591Z,1023.24
2017-01-24T11:28:56.606Z,1023.17
2017-01-24T11:29:56.623Z,1023.19
2017-01-24T11:30:56.638Z,1023.23
2017-01-24T11:31:56.653Z,1023.22
2017-01-24T11:32:56.669Z,1023.23
2017-01-24T11:34:56.701Z,1023.26
2017-01-24T11:35:56.715Z,1023.2
2017-01-24T11:36:56.731Z,1023.22
2017-01-24T11:37:56.749Z,1023.22
2017-01-24T11:38:56.762Z,1023.27
2017-01-24T11:39:56.777Z,1023.21
2017-01-24T11:40:56.793Z,1023.18
2017-01-24T11:41:56.809Z,1023.19
2017-01-24T11:42:56.824Z,1023.2
2017-01-24T11:43:56.839Z,1023.19
2017-01-24T11:44:56.855Z,1023.17
2017-01-24T11:45:56.871Z,1023.22
2017-01-24T11:46:56.885Z,1023.13
2017-01-24T11:47:56.905Z,1023.18
2017-01-24T11:48:56.917Z,1023.19
2017-01-24T11:49:56.933Z,1023.15
2017-01-24T11:50:56.947Z,1023.15
2017-01-24T11:51:56.963Z,1023.09
2017-01-24T11:52:56.980Z,1023.14
2017-01-24T11:53:56.993Z,1023.12
2017-01-24T11:54:57.009Z,1023.11
2017-01-24T11:55:57.025Z,1023.12
2017-01-24T11:56:57.041Z,1023.11
2017-01-24T11:57:57.055Z,1023.08
2017-01-24T11:58:57.072Z,1023.11
2017-01-24T11:59:57.087Z,1023.13
2017-01-24T12:00:57.103Z,1023.1
2017-01-24T12:01:57.119Z,1023.14
2017-01-24T12:02:57.136Z,1023.14
2017-01-24T12:03:57.150Z,1023.16
2017-01-24T12:04:57.164Z,1023.17
2017-01-24T12:06:57.196Z,1023.22
2017-01-24T12:07:57.212Z,1023.22
2017-01-24T12:08:57.226Z,1023.23
2017-01-24T12:09:57.242Z,1023.22
2017-01-24T12:10:57.258Z,1023.24
2017-01-24T12:11:57.275Z,1023.25
2017-01-24T12:12:57.289Z,1023.22
2017-01-24T12:13:57.304Z,1023.23
2017-01-24T12:14:57.331Z,1023.26
2017-01-24T12:15:57.336Z,1023.26
2017-01-24T12:16:57.351Z,1023.26
2017-01-24T12:17:57.366Z,1023.29
2017-01-24T12:18:57.382Z,1023.29
2017-01-24T12:19:57.396Z,1023.26
2017-01-24T12:20:57.412Z,1023.28
2017-01-24T12:22:57.444Z,1023.29
2017-01-24T12:23:57.459Z,1023.28
2017-01-24T12:24:57.474Z,1023.26
2017-01-24T12:25:57.489Z,1023.24
2017-01-24T12:26:57.505Z,1023.27
2017-01-24T12:27:57.521Z,1023.24
2017-01-24T12:28:57.537Z,1023.23
2017-01-24T12:29:57.551Z,1023.21
2017-01-24T12:30:57.566Z,1023.22
2017-01-24T12:31:57.582Z,1023.24
2017-01-24T12:32:57.597Z,1023.22
2017-01-24T12:33:57.613Z,1023.23
2017-01-24T12:34:57.627Z,1023.29
2017-01-24T12:35:57.644Z,1023.26
2017-01-24T12:36:57.659Z,1023.26
2017-01-24T12:38:57.717Z,1023.24
2017-01-24T12:39:57.705Z,1023.27
2017-01-24T12:40:57.720Z,1023.26
2017-01-24T12:41:57.735Z,1023.28
2017-01-24T12:42:57.750Z,1023.25
2017-01-24T12:43:57.768Z,1023.29
2017-01-24T12:44:57.781Z,1023.32
2017-01-24T12:45:57.797Z,1023.34
2017-01-24T12:46:57.812Z,1023.32
2017-01-24T12:47:57.827Z,1023.32